createdAt,value
2017-12-22T00:04:32.131Z,101079.08
2017-12-22T00:10:35.653Z,101079.80
2017-12-22T00:16:39.200Z,101064.45
2017-12-22T00:22:42.678Z,101065.58
2017-12-22T00:28:46.172Z,101059.80
2017-12-22T00:34:49.640Z,101061.05
2017-12-22T00:40:53.467Z,101065.28
2017-12-22T00:46:57.757Z,101057.26
2017-12-22T00:53:01.404Z,101069.23
2017-12-22T00:59:05.694Z,101059.60
2017-12-22T01:05:10.067Z,101049.84
2017-12-22T01:11:14.034Z,101038.08
2017-12-22T01:17:24.273Z,101043.16
2017-12-22T01:23:27.897Z,101043.30
2017-12-22T01:29:31.375Z,101037.77
2017-12-22T01:35:34.862Z,101042.81
2017-12-22T01:41:39.142Z,101035.45
2017-12-22T01:47:42.754Z,101031.45
2017-12-22T01:53:46.413Z,101022.83
2017-12-22T01:59:49.881Z,101030.97
2017-12-22T02:05:53.979Z,101036.11
2017-12-22T02:11:57.516Z,101019.60
2017-12-22T02:18:01.064Z,101010.95
2017-12-22T02:24:04.549Z,101005.88
2017-12-22T02:30:08.056Z,101005.98
2017-12-22T02:36:11.795Z,101005.70
2017-12-22T02:42:15.271Z,101007.25
2017-12-22T02:48:18.748Z,101003.56
2017-12-22T02:54:22.356Z,100997.20
2017-12-22T03:00:26.315Z,100996.67
2017-12-22T03:06:30.570Z,100993.61
2017-12-22T03:12:34.866Z,100988.18
2017-12-22T03:18:38.376Z,100985.09
2017-12-22T03:24:42.094Z,100978.99
2017-12-22T03:30:45.593Z,100969.47
2017-12-22T03:36:49.091Z,100968.63
2017-12-22T03:42:52.998Z,100966.69
2017-12-22T03:48:56.810Z,100963.49
2017-12-22T03:55:00.305Z,100958.95
2017-12-22T04:01:03.787Z,100955.98
2017-12-22T04:07:07.278Z,100967.50
2017-12-22T04:13:10.778Z,100957.98
2017-12-22T04:19:14.271Z,100968.25
2017-12-22T04:25:18.550Z,100962.70
2017-12-22T04:31:22.162Z,100971.92
2017-12-22T04:37:25.684Z,100971.50
2017-12-22T04:43:29.232Z,100982.77
2017-12-22T04:49:32.783Z,100984.60
2017-12-22T04:55:36.310Z,100988.00
2017-12-22T05:01:39.795Z,100987.34
2017-12-22T05:07:43.284Z,100982.75
2017-12-22T05:13:46.846Z,100986.11
2017-12-22T05:19:50.396Z,100984.78
2017-12-22T05:25:54.313Z,100976.89
2017-12-22T05:31:57.801Z,100976.05
2017-12-22T05:38:01.522Z,100970.48
2017-12-22T05:44:05.007Z,100972.58
2017-12-22T05:50:08.495Z,100976.33
2017-12-22T05:56:12.003Z,100978.83
2017-12-22T06:02:15.516Z,100988.56
2017-12-22T06:08:19.031Z,100983.66
2017-12-22T06:14:22.952Z,100987.19
2017-12-22T06:20:26.463Z,100994.38
2017-12-22T06:26:29.952Z,100991.74
2017-12-22T06:32:34.192Z,100986.20
2017-12-22T06:38:37.730Z,100982.61
2017-12-22T06:44:41.235Z,100984.30
2017-12-22T06:50:45.486Z,100993.52
2017-12-22T06:56:48.965Z,100996.13
2017-12-22T07:02:52.725Z,100997.30
2017-12-22T07:08:56.299Z,100995.37
2017-12-22T07:14:59.808Z,101000.70
2017-12-22T07:21:03.315Z,100999.09
2017-12-22T07:27:06.804Z,100993.70
2017-12-22T07:33:10.288Z,101001.70
2017-12-22T07:39:14.534Z,101003.07
2017-12-22T07:45:18.033Z,101003.59
2017-12-22T07:51:21.630Z,100993.28
2017-12-22T07:57:25.100Z,101002.38
2017-12-22T08:03:28.606Z,101030.19
2017-12-22T08:09:32.104Z,101042.27
2017-12-22T08:15:35.621Z,101046.61
2017-12-22T08:21:39.122Z,101054.45
2017-12-22T08:27:42.649Z,101062.08
2017-12-22T08:33:46.164Z,101068.05
2017-12-22T08:39:49.903Z,101073.84
2017-12-22T08:45:54.176Z,101079.94
2017-12-22T08:51:58.722Z,101082.87
2017-12-22T08:58:02.191Z,101095.94
2017-12-22T09:04:05.694Z,101089.78
2017-12-22T09:10:09.231Z,101084.83
2017-12-22T09:16:12.693Z,101098.66
2017-12-22T09:22:16.486Z,101094.75
2017-12-22T09:28:20.348Z,101099.16
2017-12-22T09:34:24.210Z,101072.38
2017-12-22T09:40:27.874Z,101108.48
2017-12-22T09:46:31.382Z,101103.84
2017-12-22T09:52:34.957Z,101100.66
2017-12-22T09:58:38.445Z,101099.83
2017-12-22T10:04:41.939Z,101069.73
2017-12-22T10:10:46.225Z,101092.88
2017-12-22T10:16:49.742Z,101085.83
2017-12-22T10:22:53.897Z,101090.87
2017-12-22T10:28:57.394Z,101092.66
2017-12-22T10:35:01.654Z,101075.39
2017-12-22T10:41:05.904Z,101082.93
2017-12-22T10:47:09.422Z,101073.84
2017-12-22T10:53:12.935Z,101072.86
2017-12-22T10:59:17.183Z,101058.39
2017-12-22T11:05:20.793Z,101071.03
2017-12-22T11:11:24.524Z,101082.17
2017-12-22T11:17:28.822Z,101073.16
2017-12-22T11:23:32.334Z,101073.59
2017-12-22T11:29:35.842Z,101093.58
2017-12-22T11:35:39.386Z,101097.25
2017-12-22T11:41:43.639Z,101093.16
2017-12-22T11:47:47.099Z,101098.27
2017-12-22T11:53:50.643Z,101084.75
2017-12-22T11:59:54.526Z,101088.25
2017-12-22T12:05:58.144Z,101078.80
2017-12-22T12:12:01.631Z,101066.05
2017-12-22T12:18:05.099Z,101062.25
2017-12-22T12:24:08.648Z,101071.08
2017-12-22T12:30:12.173Z,101071.27
2017-12-22T12:36:16.438Z,101077.09
2017-12-22T12:42:20.757Z,101078.19
2017-12-22T12:48:25.581Z,101088.22
2017-12-22T12:54:29.055Z,101068.83
2017-12-22T13:00:33.360Z,101066.23
2017-12-22T13:06:36.842Z,101058.25
2017-12-22T13:12:40.319Z,101058.66
2017-12-22T13:18:43.815Z,101050.06
2017-12-22T13:24:47.362Z,101047.55
2017-12-22T13:30:51.863Z,101056.34
2017-12-22T13:36:55.574Z,101045.44
2017-12-22T13:42:59.922Z,101051.59
2017-12-22T13:49:03.426Z,101055.01
2017-12-22T13:55:07.690Z,101062.59
2017-12-22T14:01:12.023Z,101070.38
2017-12-22T14:07:15.513Z,101064.39
2017-12-22T14:13:19.077Z,101064.36
2017-12-22T14:19:22.779Z,101067.63
2017-12-22T14:25:27.048Z,101069.94
2017-12-22T14:31:30.518Z,101074.10
2017-12-22T14:37:34.005Z,101075.33
2017-12-22T14:43:38.305Z,101068.07
2017-12-22T14:49:41.788Z,101062.81
2017-12-22T14:55:45.461Z,101069.98
2017-12-22T15:01:49.045Z,101073.97
2017-12-22T15:07:53.428Z,101056.47
2017-12-22T15:13:56.946Z,101064.14
2017-12-22T15:20:00.580Z,101077.87
2017-12-22T15:26:04.097Z,101079.77
2017-12-22T15:32:08.365Z,101075.09
2017-12-22T15:38:11.978Z,101076.27
2017-12-22T15:44:15.476Z,101077.42
2017-12-22T15:50:19.726Z,101085.64
2017-12-22T15:56:24.173Z,101084.98
2017-12-22T16:02:27.812Z,101086.01
2017-12-22T16:08:31.313Z,101100.09
2017-12-22T16:14:34.806Z,101115.66
2017-12-22T16:20:38.277Z,101110.03
2017-12-22T16:26:41.812Z,101116.66
2017-12-22T16:32:45.288Z,101128.33
2017-12-22T16:38:48.757Z,101136.30
2017-12-22T16:44:52.287Z,101127.22
2017-12-22T16:50:55.847Z,101126.48
2017-12-22T16:56:59.425Z,101133.19
2017-12-22T17:03:02.940Z,101142.98
2017-12-22T17:09:06.454Z,101145.05
2017-12-22T17:15:10.047Z,101145.82
2017-12-22T17:21:13.530Z,101143.82
2017-12-22T17:27:17.029Z,101148.83
2017-12-22T17:33:20.539Z,101141.87
2017-12-22T17:39:24.125Z,101143.80
2017-12-22T17:45:27.791Z,101159.84
2017-12-22T17:51:32.849Z,101160.36
2017-12-22T17:57:36.313Z,101160.10
2017-12-22T18:03:39.961Z,101151.34
2017-12-22T18:09:43.505Z,101153.66
2017-12-22T18:15:46.999Z,101152.09
2017-12-22T18:21:50.542Z,101154.41
2017-12-22T18:27:54.258Z,101153.38
2017-12-22T18:33:57.743Z,101162.91
2017-12-22T18:40:01.249Z,101174.41
2017-12-22T18:46:05.534Z,101159.52
2017-12-22T18:52:09.054Z,101160.89
2017-12-22T18:58:12.627Z,101167.98
2017-12-22T19:04:16.953Z,101173.19
2017-12-22T19:10:20.594Z,101177.11
2017-12-22T19:16:24.157Z,101168.59
2017-12-22T19:22:28.430Z,101180.63
2017-12-22T19:28:31.940Z,101177.64
2017-12-22T19:34:36.186Z,101176.00
2017-12-22T19:40:39.651Z,101189.69
2017-12-22T19:46:43.177Z,101190.66
2017-12-22T19:52:47.046Z,101192.55
2017-12-22T19:58:50.582Z,101191.44
2017-12-22T20:04:54.786Z,101194.96
2017-12-22T20:10:58.345Z,101185.83
2017-12-22T20:17:01.833Z,101196.36
2017-12-22T20:23:05.329Z,101203.07
2017-12-22T20:29:08.791Z,101211.73
2017-12-22T20:35:13.084Z,101216.16
2017-12-22T20:41:17.365Z,101226.19
2017-12-22T20:47:20.915Z,101226.81
2017-12-22T20:53:25.180Z,101236.00
2017-12-22T20:59:28.669Z,101230.95
2017-12-22T21:05:32.159Z,101221.84
2017-12-22T21:11:35.877Z,101230.08
2017-12-22T21:17:39.344Z,101219.19
2017-12-22T21:23:42.827Z,101213.72
2017-12-22T21:29:46.354Z,101223.44
2017-12-22T21:35:49.862Z,101211.56
2017-12-22T21:41:53.423Z,101207.69
2017-12-22T21:47:57.679Z,101215.31
2017-12-22T21:54:01.267Z,101223.19
2017-12-22T22:00:05.562Z,101196.83
2017-12-22T22:06:09.248Z,101194.66
2017-12-22T22:12:12.771Z,101213.96
2017-12-22T22:18:16.371Z,101199.36
2017-12-22T22:24:19.866Z,101191.69
2017-12-22T22:30:24.570Z,101190.72
2017-12-22T22:36:28.148Z,101185.59
2017-12-22T22:42:31.622Z,101186.02
2017-12-22T22:48:35.126Z,101201.55
2017-12-22T22:54:38.616Z,101195.38
2017-12-22T23:00:42.109Z,101199.09
2017-12-22T23:06:46.387Z,101192.42
2017-12-22T23:12:50.872Z,101185.87
2017-12-22T23:18:54.774Z,101178.34
2017-12-22T23:24:58.336Z,101178.27
2017-12-22T23:31:01.921Z,101170.34
2017-12-22T23:37:05.410Z,101166.97
2017-12-22T23:43:08.926Z,101175.66
2017-12-22T23:49:13.199Z,101166.78
2017-12-22T23:55:16.802Z,101154.98
